Isle Of Palms, SC (29451)

10:38 AM EDT on June 28, 2017 (GMT -0400)
Cottages at Copahee | | Change Station

Elev -26 ft 32.87 °N, 79.75 °W | Updated 8 seconds ago

Clear
Clear
81.7 °F
Feels Like 88 °F
N
0.0
Wind Variable Wind from SE
Gusts 0.0 mph

Today
High -- | Low -- °F
--% Chance of Precip.
Yesterday
High -- | Low -- °F
Precip. -- in
Pressure 30.14 in
Visibility -9999.0 miles
Clouds Few 4300 ft
Few 4900 ft
Few 7000 ft
Heat Index 88 °F
Dew Point 75 °F
Humidity 81%
Rainfall 0.00 in
Snow Depth Not available.
6:13 AM 8:31 PM
Waxing Crescent, 26% visible
METAR KJZI 281435Z AUTO 07013G20KT FEW043 FEW049 FEW070 28/20 A3014 RMK AO2
Pressure 30.14 in
Visibility -9999.0 miles
Clouds Few 4300 ft
Few 4900 ft
Few 7000 ft
Heat Index 88 °F
Dew Point 75 °F
Humidity 81%
Rainfall 0.00 in
Snow Depth Not available.
6:13 AM 8:31 PM
Waxing Crescent, 26% visible
METAR KJZI 281435Z AUTO 07013G20KT FEW043 FEW049 FEW070 28/20 A3014 RMK AO2

Get Severe Weather Alerts

Thanks for signing up!

Be on the lookout for a verification email in your inbox.

You'll start receiving the daily forecast at 6 AM.

×

10-Day Weather Forecast

Almanac

Astronomy

Jun. 28, 2017 Rise Set
Actual Time
Civil Twilight
Nautical Twilight
Astronomical Twilight
Moon
Length of Visible Light
Length of Day
Tomorrow will be .
, % of the Moon is Illuminated

Today's Extremes

State Highs State Lows

Community

WunderPhotos

Category 6

Welcome to Category 6. This is the collective home for Weather Underground's featured writeups by Dr. Jeff Masters (right), Bob Henson (left), Chris Burt, and other regular contributors.

Nearby

Air Quality

  Air Quality AQ Index Pollutant
Not available.

Snow Depth

Station Depth Elevation

Earthquake Activity

City Distance Mag. Time & Date
Minimum magnitude displayed is 2.5.

Coastal Water Temperatures

Place Temperature

Stations

Nearby Weather Stations

Station Location Temp. Windchill Dew Point Humidity Wind Precip. Elev Updated Type
                   

Watches & Warnings

There are currently no watches in effect.